Terminal Aerodrome Forecast
Issued by NWS

Home | Current Version | Previous Version | Text Only | Print | Product List | Glossary On
Versions: 1 2 3 4 5 6 7 8 9 10 11 12 13 14 15 16 17 18 19 20
000
FTUS41 KPBZ 012300
TAFAGC
TAF
KAGC 012321Z 0200/0224 21006KT 2SM -SN SCT004 OVC008
      TEMPO 0200/0202 1SM -SN OVC004
     FM020300 28006KT 4SM -SHSN OVC008
     FM020900 28008KT P6SM OVC015
     FM021500 30007KT P6SM BKN025
     FM022300 33005KT P6SM SCT250=

USA.gov is the U.S. government's official web portal to all federal, state and local government web resources and services.